sensor_id;sensor_type;location;lat;lon;timestamp;P1;durP1;ratioP1;P2;durP2;ratioP2
39772;SDS011;25451;51.960;6.250;2022-07-09T00:00:04;7.17;;;2.97;;
39772;SDS011;25451;51.960;6.250;2022-07-09T00:02:31;6.20;;;2.90;;
39772;SDS011;25451;51.960;6.250;2022-07-09T00:04:56;5.40;;;3.00;;
39772;SDS011;25451;51.960;6.250;2022-07-09T00:07:22;4.50;;;2.90;;
39772;SDS011;25451;51.960;6.250;2022-07-09T00:09:47;5.33;;;2.87;;
39772;SDS011;25451;51.960;6.250;2022-07-09T00:12:12;5.97;;;2.90;;
39772;SDS011;25451;51.960;6.250;2022-07-09T00:14:38;5.50;;;2.90;;
39772;SDS011;25451;51.960;6.250;2022-07-09T00:17:03;6.05;;;3.00;;
39772;SDS011;25451;51.960;6.250;2022-07-09T00:19:29;6.77;;;3.00;;
39772;SDS011;25451;51.960;6.250;2022-07-09T00:21:54;4.90;;;2.80;;
39772;SDS011;25451;51.960;6.250;2022-07-09T00:24:19;4.63;;;2.80;;
39772;SDS011;25451;51.960;6.250;2022-07-09T00:26:45;4.53;;;2.70;;
39772;SDS011;25451;51.960;6.250;2022-07-09T00:29:10;5.33;;;2.97;;
39772;SDS011;25451;51.960;6.250;2022-07-09T00:31:35;6.07;;;2.90;;
39772;SDS011;25451;51.960;6.250;2022-07-09T00:34:01;5.93;;;3.00;;
39772;SDS011;25451;51.960;6.250;2022-07-09T00:36:26;4.87;;;3.00;;
39772;SDS011;25451;51.960;6.250;2022-07-09T00:38:51;4.73;;;2.90;;
39772;SDS011;25451;51.960;6.250;2022-07-09T00:41:16;4.80;;;2.77;;
39772;SDS011;25451;51.960;6.250;2022-07-09T00:43:48;6.63;;;2.83;;
39772;SDS011;25451;51.960;6.250;2022-07-09T00:46:14;4.72;;;3.00;;
39772;SDS011;25451;51.960;6.250;2022-07-09T00:48:40;4.70;;;2.78;;
39772;SDS011;25451;51.960;6.250;2022-07-09T00:51:06;5.70;;;3.10;;
39772;SDS011;25451;51.960;6.250;2022-07-09T00:53:31;5.80;;;2.97;;
39772;SDS011;25451;51.960;6.250;2022-07-09T00:55:57;5.60;;;3.10;;
39772;SDS011;25451;51.960;6.250;2022-07-09T00:58:23;6.50;;;3.10;;
39772;SDS011;25451;51.960;6.250;2022-07-09T01:00:49;5.72;;;3.03;;
39772;SDS011;25451;51.960;6.250;2022-07-09T01:03:14;4.47;;;2.77;;
39772;SDS011;25451;51.960;6.250;2022-07-09T01:05:40;6.53;;;3.20;;
39772;SDS011;25451;51.960;6.250;2022-07-09T01:08:07;5.72;;;2.95;;
39772;SDS011;25451;51.960;6.250;2022-07-09T01:10:33;6.93;;;3.05;;
39772;SDS011;25451;51.960;6.250;2022-07-09T01:12:59;5.53;;;2.97;;
39772;SDS011;25451;51.960;6.250;2022-07-09T01:15:25;5.47;;;3.03;;
39772;SDS011;25451;51.960;6.250;2022-07-09T01:17:50;4.65;;;2.78;;
39772;SDS011;25451;51.960;6.250;2022-07-09T01:20:23;5.23;;;2.87;;
39772;SDS011;25451;51.960;6.250;2022-07-09T01:22:50;5.72;;;2.47;;
39772;SDS011;25451;51.960;6.250;2022-07-09T01:25:16;6.22;;;3.10;;
39772;SDS011;25451;51.960;6.250;2022-07-09T01:27:43;8.80;;;3.05;;
39772;SDS011;25451;51.960;6.250;2022-07-09T01:30:08;5.40;;;3.23;;
39772;SDS011;25451;51.960;6.250;2022-07-09T01:32:34;5.32;;;2.83;;
39772;SDS011;25451;51.960;6.250;2022-07-09T01:35:00;5.70;;;3.10;;
39772;SDS011;25451;51.960;6.250;2022-07-09T01:37:25;7.53;;;3.40;;
39772;SDS011;25451;51.960;6.250;2022-07-09T01:39:50;7.00;;;3.10;;
39772;SDS011;25451;51.960;6.250;2022-07-09T01:42:16;7.27;;;3.10;;
39772;SDS011;25451;51.960;6.250;2022-07-09T01:44:42;6.13;;;3.08;;
39772;SDS011;25451;51.960;6.250;2022-07-09T01:47:08;6.25;;;3.15;;
39772;SDS011;25451;51.960;6.250;2022-07-09T01:49:34;4.57;;;2.97;;
39772;SDS011;25451;51.960;6.250;2022-07-09T01:51:59;4.73;;;3.00;;
39772;SDS011;25451;51.960;6.250;2022-07-09T01:54:24;4.33;;;2.90;;
39772;SDS011;25451;51.960;6.250;2022-07-09T01:56:49;7.00;;;3.20;;
39772;SDS011;25451;51.960;6.250;2022-07-09T01:59:15;5.23;;;3.00;;
39772;SDS011;25451;51.960;6.250;2022-07-09T02:01:40;5.53;;;2.93;;
39772;SDS011;25451;51.960;6.250;2022-07-09T02:04:05;5.03;;;3.03;;
39772;SDS011;25451;51.960;6.250;2022-07-09T02:06:31;5.63;;;3.07;;
39772;SDS011;25451;51.960;6.250;2022-07-09T02:08:56;4.63;;;3.13;;
39772;SDS011;25451;51.960;6.250;2022-07-09T02:11:21;4.37;;;3.07;;
39772;SDS011;25451;51.960;6.250;2022-07-09T02:13:46;6.43;;;3.37;;
39772;SDS011;25451;51.960;6.250;2022-07-09T02:16:12;5.67;;;3.30;;
39772;SDS011;25451;51.960;6.250;2022-07-09T02:18:37;5.13;;;3.43;;
39772;SDS011;25451;51.960;6.250;2022-07-09T02:21:03;6.97;;;3.42;;
39772;SDS011;25451;51.960;6.250;2022-07-09T02:23:30;5.63;;;3.63;;
39772;SDS011;25451;51.960;6.250;2022-07-09T02:25:55;7.27;;;3.33;;
39772;SDS011;25451;51.960;6.250;2022-07-09T02:28:20;6.83;;;3.37;;
39772;SDS011;25451;51.960;6.250;2022-07-09T02:30:46;7.40;;;3.47;;
39772;SDS011;25451;51.960;6.250;2022-07-09T02:33:11;6.23;;;3.20;;
39772;SDS011;25451;51.960;6.250;2022-07-09T02:35:36;5.50;;;3.30;;
39772;SDS011;25451;51.960;6.250;2022-07-09T02:38:02;6.97;;;3.20;;
39772;SDS011;25451;51.960;6.250;2022-07-09T02:40:27;5.97;;;3.43;;
39772;SDS011;25451;51.960;6.250;2022-07-09T02:42:52;5.53;;;3.30;;
39772;SDS011;25451;51.960;6.250;2022-07-09T02:45:18;5.27;;;3.27;;
39772;SDS011;25451;51.960;6.250;2022-07-09T02:47:43;6.03;;;3.20;;
39772;SDS011;25451;51.960;6.250;2022-07-09T02:50:08;6.00;;;3.43;;
39772;SDS011;25451;51.960;6.250;2022-07-09T02:52:34;5.75;;;3.40;;
39772;SDS011;25451;51.960;6.250;2022-07-09T02:54:59;5.70;;;3.17;;
39772;SDS011;25451;51.960;6.250;2022-07-09T02:57:25;6.00;;;3.40;;
39772;SDS011;25451;51.960;6.250;2022-07-09T02:59:50;6.03;;;3.57;;
39772;SDS011;25451;51.960;6.250;2022-07-09T03:02:15;6.67;;;3.63;;
39772;SDS011;25451;51.960;6.250;2022-07-09T03:04:40;7.20;;;3.57;;
39772;SDS011;25451;51.960;6.250;2022-07-09T03:07:06;9.80;;;3.50;;
39772;SDS011;25451;51.960;6.250;2022-07-09T03:09:31;8.07;;;3.90;;
39772;SDS011;25451;51.960;6.250;2022-07-09T03:11:57;7.30;;;3.50;;
39772;SDS011;25451;51.960;6.250;2022-07-09T03:14:22;7.27;;;3.73;;
39772;SDS011;25451;51.960;6.250;2022-07-09T03:16:47;8.90;;;3.53;;
39772;SDS011;25451;51.960;6.250;2022-07-09T03:19:13;5.73;;;3.53;;
39772;SDS011;25451;51.960;6.250;2022-07-09T03:21:39;6.80;;;3.60;;
39772;SDS011;25451;51.960;6.250;2022-07-09T03:24:04;6.23;;;3.70;;
39772;SDS011;25451;51.960;6.250;2022-07-09T03:26:30;7.47;;;3.77;;
39772;SDS011;25451;51.960;6.250;2022-07-09T03:28:55;6.07;;;3.73;;
39772;SDS011;25451;51.960;6.250;2022-07-09T03:31:20;6.83;;;4.20;;
39772;SDS011;25451;51.960;6.250;2022-07-09T03:33:45;8.80;;;4.00;;
39772;SDS011;25451;51.960;6.250;2022-07-09T03:36:11;6.93;;;4.20;;
39772;SDS011;25451;51.960;6.250;2022-07-09T03:38:36;7.40;;;4.23;;
39772;SDS011;25451;51.960;6.250;2022-07-09T03:41:02;9.60;;;4.30;;
39772;SDS011;25451;51.960;6.250;2022-07-09T03:43:27;6.83;;;4.20;;
39772;SDS011;25451;51.960;6.250;2022-07-09T03:45:52;7.57;;;4.30;;
39772;SDS011;25451;51.960;6.250;2022-07-09T03:48:19;7.90;;;4.15;;
39772;SDS011;25451;51.960;6.250;2022-07-09T03:50:44;6.40;;;3.97;;
39772;SDS011;25451;51.960;6.250;2022-07-09T03:53:09;7.27;;;4.00;;
39772;SDS011;25451;51.960;6.250;2022-07-09T03:55:35;6.87;;;4.13;;
39772;SDS011;25451;51.960;6.250;2022-07-09T03:58:00;8.50;;;4.47;;
39772;SDS011;25451;51.960;6.250;2022-07-09T04:00:26;6.77;;;4.13;;
39772;SDS011;25451;51.960;6.250;2022-07-09T04:02:53;7.50;;;4.37;;
39772;SDS011;25451;51.960;6.250;2022-07-09T04:05:18;7.53;;;4.23;;
39772;SDS011;25451;51.960;6.250;2022-07-09T04:07:43;6.67;;;4.10;;
39772;SDS011;25451;51.960;6.250;2022-07-09T04:10:09;7.33;;;4.13;;
39772;SDS011;25451;51.960;6.250;2022-07-09T04:12:34;7.57;;;4.33;;
39772;SDS011;25451;51.960;6.250;2022-07-09T04:14:59;10.23;;;4.73;;
39772;SDS011;25451;51.960;6.250;2022-07-09T04:17:25;9.70;;;4.70;;
39772;SDS011;25451;51.960;6.250;2022-07-09T04:19:50;7.67;;;4.40;;
39772;SDS011;25451;51.960;6.250;2022-07-09T04:22:15;8.70;;;4.30;;
39772;SDS011;25451;51.960;6.250;2022-07-09T04:24:40;7.67;;;4.37;;
39772;SDS011;25451;51.960;6.250;2022-07-09T04:27:06;7.43;;;4.50;;
39772;SDS011;25451;51.960;6.250;2022-07-09T04:29:31;10.50;;;4.73;;
39772;SDS011;25451;51.960;6.250;2022-07-09T04:31:57;9.07;;;4.77;;
39772;SDS011;25451;51.960;6.250;2022-07-09T04:34:23;7.70;;;4.73;;
39772;SDS011;25451;51.960;6.250;2022-07-09T04:36:48;8.30;;;4.60;;
39772;SDS011;25451;51.960;6.250;2022-07-09T04:39:14;8.52;;;4.30;;
39772;SDS011;25451;51.960;6.250;2022-07-09T04:41:39;7.77;;;4.07;;
39772;SDS011;25451;51.960;6.250;2022-07-09T04:44:05;8.15;;;4.80;;
39772;SDS011;25451;51.960;6.250;2022-07-09T04:46:30;7.38;;;4.00;;
39772;SDS011;25451;51.960;6.250;2022-07-09T04:48:57;10.83;;;4.53;;
39772;SDS011;25451;51.960;6.250;2022-07-09T04:51:22;7.78;;;4.85;;
39772;SDS011;25451;51.960;6.250;2022-07-09T04:53:47;10.10;;;4.57;;
39772;SDS011;25451;51.960;6.250;2022-07-09T04:56:13;7.93;;;4.60;;
39772;SDS011;25451;51.960;6.250;2022-07-09T04:58:39;10.90;;;5.07;;
39772;SDS011;25451;51.960;6.250;2022-07-09T05:01:16;10.68;;;5.00;;
39772;SDS011;25451;51.960;6.250;2022-07-09T05:03:48;9.17;;;4.97;;
39772;SDS011;25451;51.960;6.250;2022-07-09T05:06:14;9.10;;;4.93;;
39772;SDS011;25451;51.960;6.250;2022-07-09T05:08:41;7.85;;;4.93;;
39772;SDS011;25451;51.960;6.250;2022-07-09T05:11:06;9.27;;;4.70;;
39772;SDS011;25451;51.960;6.250;2022-07-09T05:13:32;9.07;;;4.73;;
39772;SDS011;25451;51.960;6.250;2022-07-09T05:15:57;10.45;;;5.40;;
39772;SDS011;25451;51.960;6.250;2022-07-09T05:18:22;12.77;;;6.00;;
39772;SDS011;25451;51.960;6.250;2022-07-09T05:20:47;9.93;;;5.33;;
39772;SDS011;25451;51.960;6.250;2022-07-09T05:23:13;11.43;;;6.70;;
39772;SDS011;25451;51.960;6.250;2022-07-09T05:25:38;13.13;;;5.80;;
39772;SDS011;25451;51.960;6.250;2022-07-09T05:28:03;9.60;;;5.40;;
39772;SDS011;25451;51.960;6.250;2022-07-09T05:30:29;10.77;;;5.63;;
39772;SDS011;25451;51.960;6.250;2022-07-09T05:32:54;12.37;;;6.10;;
39772;SDS011;25451;51.960;6.250;2022-07-09T05:35:19;11.50;;;5.77;;
39772;SDS011;25451;51.960;6.250;2022-07-09T05:37:45;12.10;;;6.10;;
39772;SDS011;25451;51.960;6.250;2022-07-09T05:40:10;10.97;;;5.50;;
39772;SDS011;25451;51.960;6.250;2022-07-09T05:42:36;11.43;;;5.80;;
39772;SDS011;25451;51.960;6.250;2022-07-09T05:45:02;12.48;;;6.30;;
39772;SDS011;25451;51.960;6.250;2022-07-09T05:47:28;11.40;;;5.87;;
39772;SDS011;25451;51.960;6.250;2022-07-09T05:49:53;10.85;;;6.10;;
39772;SDS011;25451;51.960;6.250;2022-07-09T05:52:18;10.43;;;5.70;;
39772;SDS011;25451;51.960;6.250;2022-07-09T05:54:44;12.90;;;6.10;;
39772;SDS011;25451;51.960;6.250;2022-07-09T05:57:09;9.23;;;5.70;;
39772;SDS011;25451;51.960;6.250;2022-07-09T05:59:34;11.37;;;5.50;;
39772;SDS011;25451;51.960;6.250;2022-07-09T06:02:00;8.70;;;5.40;;
39772;SDS011;25451;51.960;6.250;2022-07-09T06:04:27;13.48;;;5.88;;
39772;SDS011;25451;51.960;6.250;2022-07-09T06:06:53;9.75;;;5.63;;
39772;SDS011;25451;51.960;6.250;2022-07-09T06:09:18;9.90;;;5.47;;
39772;SDS011;25451;51.960;6.250;2022-07-09T06:11:44;10.60;;;6.10;;
39772;SDS011;25451;51.960;6.250;2022-07-09T06:14:09;10.93;;;5.90;;
39772;SDS011;25451;51.960;6.250;2022-07-09T06:16:34;10.93;;;5.77;;
39772;SDS011;25451;51.960;6.250;2022-07-09T06:18:59;9.07;;;5.70;;
39772;SDS011;25451;51.960;6.250;2022-07-09T06:21:25;13.47;;;5.70;;
39772;SDS011;25451;51.960;6.250;2022-07-09T06:23:50;10.70;;;6.23;;
39772;SDS011;25451;51.960;6.250;2022-07-09T06:26:15;11.40;;;5.90;;
39772;SDS011;25451;51.960;6.250;2022-07-09T06:28:41;10.17;;;5.90;;
39772;SDS011;25451;51.960;6.250;2022-07-09T06:31:06;10.73;;;6.20;;
39772;SDS011;25451;51.960;6.250;2022-07-09T06:33:31;10.60;;;6.10;;
39772;SDS011;25451;51.960;6.250;2022-07-09T06:35:57;10.00;;;5.83;;
39772;SDS011;25451;51.960;6.250;2022-07-09T06:38:22;10.10;;;5.60;;
39772;SDS011;25451;51.960;6.250;2022-07-09T06:40:47;12.23;;;6.10;;
39772;SDS011;25451;51.960;6.250;2022-07-09T06:43:13;13.07;;;5.80;;
39772;SDS011;25451;51.960;6.250;2022-07-09T06:45:38;14.43;;;6.03;;
39772;SDS011;25451;51.960;6.250;2022-07-09T06:48:04;10.75;;;5.65;;
39772;SDS011;25451;51.960;6.250;2022-07-09T06:50:29;9.43;;;5.17;;
39772;SDS011;25451;51.960;6.250;2022-07-09T06:52:55;10.07;;;5.47;;
39772;SDS011;25451;51.960;6.250;2022-07-09T06:55:20;11.63;;;5.38;;
39772;SDS011;25451;51.960;6.250;2022-07-09T06:57:46;9.93;;;5.03;;
39772;SDS011;25451;51.960;6.250;2022-07-09T07:00:12;10.23;;;4.95;;
39772;SDS011;25451;51.960;6.250;2022-07-09T07:02:38;8.97;;;4.57;;
39772;SDS011;25451;51.960;6.250;2022-07-09T07:05:03;8.00;;;4.33;;
39772;SDS011;25451;51.960;6.250;2022-07-09T07:07:29;7.97;;;4.38;;
39772;SDS011;25451;51.960;6.250;2022-07-09T07:09:55;5.73;;;3.60;;
39772;SDS011;25451;51.960;6.250;2022-07-09T07:12:20;8.33;;;3.40;;
39772;SDS011;25451;51.960;6.250;2022-07-09T07:14:45;9.60;;;3.80;;
39772;SDS011;25451;51.960;6.250;2022-07-09T07:17:10;6.27;;;3.43;;
39772;SDS011;25451;51.960;6.250;2022-07-09T07:19:36;9.27;;;3.77;;
39772;SDS011;25451;51.960;6.250;2022-07-09T07:22:01;6.13;;;3.40;;
39772;SDS011;25451;51.960;6.250;2022-07-09T07:24:27;5.43;;;3.00;;
39772;SDS011;25451;51.960;6.250;2022-07-09T07:26:52;6.28;;;3.53;;
39772;SDS011;25451;51.960;6.250;2022-07-09T07:29:18;6.23;;;3.40;;
39772;SDS011;25451;51.960;6.250;2022-07-09T07:31:44;4.85;;;2.80;;
39772;SDS011;25451;51.960;6.250;2022-07-09T07:34:09;5.17;;;3.03;;
39772;SDS011;25451;51.960;6.250;2022-07-09T07:36:34;4.40;;;2.73;;
39772;SDS011;25451;51.960;6.250;2022-07-09T07:39:00;6.33;;;3.00;;
39772;SDS011;25451;51.960;6.250;2022-07-09T07:41:25;6.03;;;2.93;;
39772;SDS011;25451;51.960;6.250;2022-07-09T07:43:50;6.70;;;2.60;;
39772;SDS011;25451;51.960;6.250;2022-07-09T07:46:16;7.37;;;3.27;;
39772;SDS011;25451;51.960;6.250;2022-07-09T07:48:41;5.90;;;3.03;;
39772;SDS011;25451;51.960;6.250;2022-07-09T07:51:07;5.50;;;3.07;;
39772;SDS011;25451;51.960;6.250;2022-07-09T07:53:33;7.35;;;2.80;;
39772;SDS011;25451;51.960;6.250;2022-07-09T07:56:05;8.03;;;2.87;;
39772;SDS011;25451;51.960;6.250;2022-07-09T07:58:32;6.22;;;2.72;;
39772;SDS011;25451;51.960;6.250;2022-07-09T08:00:58;7.32;;;3.30;;
39772;SDS011;25451;51.960;6.250;2022-07-09T08:03:23;6.07;;;3.00;;
39772;SDS011;25451;51.960;6.250;2022-07-09T08:05:48;5.40;;;2.50;;
39772;SDS011;25451;51.960;6.250;2022-07-09T08:08:14;5.20;;;2.50;;
39772;SDS011;25451;51.960;6.250;2022-07-09T08:10:39;6.13;;;3.08;;
39772;SDS011;25451;51.960;6.250;2022-07-09T08:13:05;5.20;;;2.77;;
39772;SDS011;25451;51.960;6.250;2022-07-09T08:15:30;5.83;;;3.07;;
39772;SDS011;25451;51.960;6.250;2022-07-09T08:17:55;6.57;;;3.37;;
39772;SDS011;25451;51.960;6.250;2022-07-09T08:20:22;6.40;;;3.70;;
39772;SDS011;25451;51.960;6.250;2022-07-09T08:22:48;7.93;;;3.40;;
39772;SDS011;25451;51.960;6.250;2022-07-09T08:25:14;6.67;;;3.67;;
39772;SDS011;25451;51.960;6.250;2022-07-09T08:27:39;7.22;;;3.42;;
39772;SDS011;25451;51.960;6.250;2022-07-09T08:30:05;6.10;;;3.40;;
39772;SDS011;25451;51.960;6.250;2022-07-09T08:32:31;6.05;;;3.50;;
39772;SDS011;25451;51.960;6.250;2022-07-09T08:34:56;6.30;;;3.53;;
39772;SDS011;25451;51.960;6.250;2022-07-09T08:37:21;7.93;;;3.50;;
39772;SDS011;25451;51.960;6.250;2022-07-09T08:39:47;6.67;;;3.20;;
39772;SDS011;25451;51.960;6.250;2022-07-09T08:42:12;7.03;;;3.20;;
39772;SDS011;25451;51.960;6.250;2022-07-09T08:44:40;5.15;;;2.75;;
39772;SDS011;25451;51.960;6.250;2022-07-09T08:47:10;4.93;;;2.70;;
39772;SDS011;25451;51.960;6.250;2022-07-09T08:49:36;4.32;;;2.38;;
39772;SDS011;25451;51.960;6.250;2022-07-09T08:52:03;5.25;;;2.50;;
39772;SDS011;25451;51.960;6.250;2022-07-09T08:54:28;7.10;;;2.35;;
39772;SDS011;25451;51.960;6.250;2022-07-09T08:56:56;3.53;;;2.15;;
39772;SDS011;25451;51.960;6.250;2022-07-09T08:59:21;4.27;;;1.90;;
39772;SDS011;25451;51.960;6.250;2022-07-09T09:01:46;6.57;;;2.07;;
39772;SDS011;25451;51.960;6.250;2022-07-09T09:04:11;4.00;;;2.00;;
39772;SDS011;25451;51.960;6.250;2022-07-09T09:06:38;5.57;;;2.33;;
39772;SDS011;25451;51.960;6.250;2022-07-09T09:09:06;5.45;;;2.05;;
39772;SDS011;25451;51.960;6.250;2022-07-09T09:11:33;4.50;;;2.00;;
39772;SDS011;25451;51.960;6.250;2022-07-09T09:14:00;4.13;;;2.03;;
39772;SDS011;25451;51.960;6.250;2022-07-09T09:16:25;4.43;;;2.10;;
39772;SDS011;25451;51.960;6.250;2022-07-09T09:18:51;3.70;;;2.00;;
39772;SDS011;25451;51.960;6.250;2022-07-09T09:21:19;5.57;;;2.30;;
39772;SDS011;25451;51.960;6.250;2022-07-09T09:23:47;5.88;;;2.30;;
39772;SDS011;25451;51.960;6.250;2022-07-09T09:26:14;4.33;;;2.20;;
39772;SDS011;25451;51.960;6.250;2022-07-09T09:28:51;6.15;;;2.47;;
39772;SDS011;25451;51.960;6.250;2022-07-09T09:31:25;5.75;;;2.10;;
39772;SDS011;25451;51.960;6.250;2022-07-09T09:33:57;3.95;;;2.00;;
39772;SDS011;25451;51.960;6.250;2022-07-09T09:36:35;4.63;;;2.17;;
39772;SDS011;25451;51.960;6.250;2022-07-09T09:41:48;5.72;;;2.80;;
39772;SDS011;25451;51.960;6.250;2022-07-09T09:44:16;6.57;;;2.97;;
39772;SDS011;25451;51.960;6.250;2022-07-09T09:46:43;6.50;;;2.70;;
39772;SDS011;25451;51.960;6.250;2022-07-09T09:49:10;7.93;;;3.00;;
39772;SDS011;25451;51.960;6.250;2022-07-09T09:51:38;7.50;;;2.90;;
39772;SDS011;25451;51.960;6.250;2022-07-09T09:54:10;5.50;;;2.60;;
39772;SDS011;25451;51.960;6.250;2022-07-09T09:56:36;5.63;;;2.72;;
39772;SDS011;25451;51.960;6.250;2022-07-09T09:59:03;5.72;;;2.80;;
39772;SDS011;25451;51.960;6.250;2022-07-09T10:01:28;5.17;;;3.20;;
39772;SDS011;25451;51.960;6.250;2022-07-09T10:03:55;7.30;;;3.60;;
39772;SDS011;25451;51.960;6.250;2022-07-09T10:06:21;7.80;;;3.47;;
39772;SDS011;25451;51.960;6.250;2022-07-09T10:08:46;7.13;;;3.17;;
39772;SDS011;25451;51.960;6.250;2022-07-09T10:11:12;7.27;;;3.90;;
39772;SDS011;25451;51.960;6.250;2022-07-09T10:13:37;9.83;;;4.03;;
39772;SDS011;25451;51.960;6.250;2022-07-09T10:16:13;6.32;;;4.20;;
39772;SDS011;25451;51.960;6.250;2022-07-09T10:18:49;7.77;;;4.90;;
39772;SDS011;25451;51.960;6.250;2022-07-09T10:21:17;8.32;;;4.40;;
39772;SDS011;25451;51.960;6.250;2022-07-09T10:23:49;6.43;;;4.57;;
39772;SDS011;25451;51.960;6.250;2022-07-09T10:26:15;7.00;;;4.32;;
39772;SDS011;25451;51.960;6.250;2022-07-09T10:28:40;6.60;;;4.77;;
39772;SDS011;25451;51.960;6.250;2022-07-09T10:31:06;5.97;;;4.30;;
39772;SDS011;25451;51.960;6.250;2022-07-09T10:33:33;6.70;;;4.53;;
39772;SDS011;25451;51.960;6.250;2022-07-09T10:36:08;6.82;;;4.75;;
39772;SDS011;25451;51.960;6.250;2022-07-09T10:38:38;7.38;;;3.85;;
39772;SDS011;25451;51.960;6.250;2022-07-09T10:41:04;8.27;;;3.73;;
39772;SDS011;25451;51.960;6.250;2022-07-09T10:46:30;6.70;;;3.10;;
39772;SDS011;25451;51.960;6.250;2022-07-09T10:48:58;5.72;;;3.30;;
39772;SDS011;25451;51.960;6.250;2022-07-09T10:51:23;4.27;;;2.70;;
39772;SDS011;25451;51.960;6.250;2022-07-09T10:53:49;3.40;;;2.30;;
39772;SDS011;25451;51.960;6.250;2022-07-09T10:56:18;4.83;;;2.30;;
39772;SDS011;25451;51.960;6.250;2022-07-09T10:58:47;5.13;;;2.08;;
39772;SDS011;25451;51.960;6.250;2022-07-09T11:01:20;5.85;;;2.20;;
39772;SDS011;25451;51.960;6.250;2022-07-09T11:03:48;3.53;;;1.90;;
39772;SDS011;25451;51.960;6.250;2022-07-09T11:06:15;3.90;;;1.55;;
39772;SDS011;25451;51.960;6.250;2022-07-09T11:08:40;3.90;;;1.37;;
39772;SDS011;25451;51.960;6.250;2022-07-09T11:11:06;3.35;;;1.33;;
39772;SDS011;25451;51.960;6.250;2022-07-09T11:13:31;3.50;;;1.23;;
39772;SDS011;25451;51.960;6.250;2022-07-09T11:15:57;2.63;;;1.00;;
39772;SDS011;25451;51.960;6.250;2022-07-09T11:18:25;1.50;;;0.98;;
39772;SDS011;25451;51.960;6.250;2022-07-09T11:20:52;2.93;;;0.90;;
39772;SDS011;25451;51.960;6.250;2022-07-09T11:23:17;1.90;;;0.90;;
39772;SDS011;25451;51.960;6.250;2022-07-09T11:25:43;2.25;;;1.00;;
39772;SDS011;25451;51.960;6.250;2022-07-09T11:28:17;1.70;;;1.10;;
39772;SDS011;25451;51.960;6.250;2022-07-09T11:30:44;2.15;;;1.13;;
39772;SDS011;25451;51.960;6.250;2022-07-09T11:33:11;1.60;;;1.00;;
39772;SDS011;25451;51.960;6.250;2022-07-09T11:35:37;2.70;;;1.10;;
39772;SDS011;25451;51.960;6.250;2022-07-09T11:38:03;2.10;;;1.00;;
39772;SDS011;25451;51.960;6.250;2022-07-09T11:40:32;2.35;;;0.98;;
39772;SDS011;25451;51.960;6.250;2022-07-09T11:42:57;2.30;;;1.00;;
39772;SDS011;25451;51.960;6.250;2022-07-09T11:45:26;2.20;;;1.10;;
39772;SDS011;25451;51.960;6.250;2022-07-09T11:48:06;1.75;;;0.93;;
39772;SDS011;25451;51.960;6.250;2022-07-09T11:50:33;3.67;;;1.20;;
39772;SDS011;25451;51.960;6.250;2022-07-09T11:52:59;1.90;;;0.90;;
39772;SDS011;25451;51.960;6.250;2022-07-09T11:55:28;3.92;;;1.00;;
39772;SDS011;25451;51.960;6.250;2022-07-09T11:57:59;2.33;;;0.90;;
39772;SDS011;25451;51.960;6.250;2022-07-09T12:00:32;2.97;;;1.05;;
39772;SDS011;25451;51.960;6.250;2022-07-09T12:02:58;1.70;;;0.90;;
39772;SDS011;25451;51.960;6.250;2022-07-09T12:05:28;1.60;;;0.90;;
39772;SDS011;25451;51.960;6.250;2022-07-09T12:07:56;2.63;;;1.10;;
39772;SDS011;25451;51.960;6.250;2022-07-09T12:10:26;1.63;;;0.83;;
39772;SDS011;25451;51.960;6.250;2022-07-09T12:12:56;1.45;;;0.70;;
39772;SDS011;25451;51.960;6.250;2022-07-09T12:15:22;1.50;;;0.80;;
39772;SDS011;25451;51.960;6.250;2022-07-09T12:17:51;0.80;;;0.70;;
39772;SDS011;25451;51.960;6.250;2022-07-09T12:20:17;2.15;;;0.85;;
39772;SDS011;25451;51.960;6.250;2022-07-09T12:22:43;2.97;;;0.80;;
39772;SDS011;25451;51.960;6.250;2022-07-09T12:25:09;2.17;;;0.90;;
39772;SDS011;25451;51.960;6.250;2022-07-09T12:27:34;2.73;;;0.80;;
39772;SDS011;25451;51.960;6.250;2022-07-09T12:29:59;2.17;;;0.80;;
39772;SDS011;25451;51.960;6.250;2022-07-09T12:32:25;1.57;;;0.80;;
39772;SDS011;25451;51.960;6.250;2022-07-09T12:34:50;1.53;;;0.80;;
39772;SDS011;25451;51.960;6.250;2022-07-09T12:37:15;2.80;;;0.77;;
39772;SDS011;25451;51.960;6.250;2022-07-09T12:39:40;5.43;;;0.90;;
39772;SDS011;25451;51.960;6.250;2022-07-09T12:42:06;3.20;;;0.87;;
39772;SDS011;25451;51.960;6.250;2022-07-09T12:44:31;2.35;;;0.70;;
39772;SDS011;25451;51.960;6.250;2022-07-09T12:46:56;2.10;;;0.70;;
39772;SDS011;25451;51.960;6.250;2022-07-09T12:49:22;5.87;;;0.80;;
39772;SDS011;25451;51.960;6.250;2022-07-09T12:51:47;2.77;;;0.80;;
39772;SDS011;25451;51.960;6.250;2022-07-09T12:54:12;1.83;;;0.83;;
39772;SDS011;25451;51.960;6.250;2022-07-09T12:56:38;1.63;;;0.70;;
39772;SDS011;25451;51.960;6.250;2022-07-09T12:59:03;2.57;;;0.70;;
39772;SDS011;25451;51.960;6.250;2022-07-09T13:01:28;5.33;;;0.80;;
39772;SDS011;25451;51.960;6.250;2022-07-09T13:03:54;2.10;;;0.80;;
39772;SDS011;25451;51.960;6.250;2022-07-09T13:06:19;1.57;;;0.70;;
39772;SDS011;25451;51.960;6.250;2022-07-09T13:08:59;3.63;;;0.90;;
39772;SDS011;25451;51.960;6.250;2022-07-09T13:11:26;3.50;;;0.90;;
39772;SDS011;25451;51.960;6.250;2022-07-09T13:13:51;3.28;;;0.80;;
39772;SDS011;25451;51.960;6.250;2022-07-09T13:16:17;1.57;;;0.87;;
39772;SDS011;25451;51.960;6.250;2022-07-09T13:18:42;2.28;;;0.90;;
39772;SDS011;25451;51.960;6.250;2022-07-09T13:21:08;3.13;;;0.80;;
39772;SDS011;25451;51.960;6.250;2022-07-09T13:23:33;2.27;;;0.80;;
39772;SDS011;25451;51.960;6.250;2022-07-09T13:25:59;2.33;;;0.80;;
39772;SDS011;25451;51.960;6.250;2022-07-09T13:28:24;3.37;;;0.70;;
39772;SDS011;25451;51.960;6.250;2022-07-09T13:30:50;2.30;;;0.80;;
39772;SDS011;25451;51.960;6.250;2022-07-09T13:33:15;2.17;;;0.70;;
39772;SDS011;25451;51.960;6.250;2022-07-09T13:35:41;2.28;;;0.80;;
39772;SDS011;25451;51.960;6.250;2022-07-09T13:38:06;4.00;;;0.67;;
39772;SDS011;25451;51.960;6.250;2022-07-09T13:40:31;2.50;;;0.73;;
39772;SDS011;25451;51.960;6.250;2022-07-09T13:42:57;1.93;;;0.80;;
39772;SDS011;25451;51.960;6.250;2022-07-09T13:45:22;0.87;;;0.60;;
39772;SDS011;25451;51.960;6.250;2022-07-09T13:47:47;2.07;;;0.70;;
39772;SDS011;25451;51.960;6.250;2022-07-09T13:50:12;1.57;;;0.80;;
39772;SDS011;25451;51.960;6.250;2022-07-09T13:52:38;2.77;;;0.70;;
39772;SDS011;25451;51.960;6.250;2022-07-09T13:55:03;2.50;;;0.70;;
39772;SDS011;25451;51.960;6.250;2022-07-09T13:57:29;2.75;;;0.80;;
39772;SDS011;25451;51.960;6.250;2022-07-09T13:59:54;3.83;;;0.80;;
39772;SDS011;25451;51.960;6.250;2022-07-09T14:02:19;2.60;;;0.80;;
39772;SDS011;25451;51.960;6.250;2022-07-09T14:04:45;1.57;;;0.80;;
39772;SDS011;25451;51.960;6.250;2022-07-09T14:07:11;4.35;;;0.70;;
39772;SDS011;25451;51.960;6.250;2022-07-09T14:09:37;3.63;;;0.70;;
39772;SDS011;25451;51.960;6.250;2022-07-09T14:12:02;3.23;;;0.70;;
39772;SDS011;25451;51.960;6.250;2022-07-09T14:14:28;2.10;;;0.70;;
39772;SDS011;25451;51.960;6.250;2022-07-09T14:16:53;1.63;;;0.60;;
39772;SDS011;25451;51.960;6.250;2022-07-09T14:19:19;3.90;;;0.80;;
39772;SDS011;25451;51.960;6.250;2022-07-09T14:21:44;1.50;;;0.60;;
39772;SDS011;25451;51.960;6.250;2022-07-09T14:24:09;2.40;;;0.70;;
39772;SDS011;25451;51.960;6.250;2022-07-09T14:26:34;1.83;;;0.73;;
39772;SDS011;25451;51.960;6.250;2022-07-09T14:29:00;2.67;;;0.70;;
39772;SDS011;25451;51.960;6.250;2022-07-09T14:31:26;2.10;;;1.10;;
39772;SDS011;25451;51.960;6.250;2022-07-09T14:33:51;2.57;;;0.70;;
39772;SDS011;25451;51.960;6.250;2022-07-09T14:36:16;3.07;;;0.70;;
39772;SDS011;25451;51.960;6.250;2022-07-09T14:38:42;1.23;;;0.63;;
39772;SDS011;25451;51.960;6.250;2022-07-09T14:41:07;3.37;;;0.90;;
39772;SDS011;25451;51.960;6.250;2022-07-09T14:43:32;3.63;;;1.00;;